sensor_id;sensor_type;location;lat;lon;timestamp;P1;durP1;ratioP1;P2;durP2;ratioP2
78120;SDS011;67585;44.802;10.332;2024-01-16T00:02:27;39.58;;;15.57;;
78120;SDS011;67585;44.802;10.332;2024-01-16T00:04:55;41.03;;;16.42;;
78120;SDS011;67585;44.802;10.332;2024-01-16T00:07:20;40.25;;;16.45;;
78120;SDS011;67585;44.802;10.332;2024-01-16T00:09:46;44.05;;;17.77;;
78120;SDS011;67585;44.802;10.332;2024-01-16T00:12:11;45.63;;;18.83;;
78120;SDS011;67585;44.802;10.332;2024-01-16T00:14:37;52.38;;;20.55;;
78120;SDS011;67585;44.802;10.332;2024-01-16T00:17:03;46.78;;;20.92;;
78120;SDS011;67585;44.802;10.332;2024-01-16T00:19:28;46.45;;;18.80;;
78120;SDS011;67585;44.802;10.332;2024-01-16T00:21:54;42.60;;;17.83;;
78120;SDS011;67585;44.802;10.332;2024-01-16T00:24:19;40.40;;;17.73;;
78120;SDS011;67585;44.802;10.332;2024-01-16T00:26:45;44.17;;;20.90;;
78120;SDS011;67585;44.802;10.332;2024-01-16T00:29:11;47.67;;;20.92;;
78120;SDS011;67585;44.802;10.332;2024-01-16T00:31:37;45.88;;;19.70;;
78120;SDS011;67585;44.802;10.332;2024-01-16T00:34:04;41.13;;;16.95;;
78120;SDS011;67585;44.802;10.332;2024-01-16T00:36:29;46.15;;;21.65;;
78120;SDS011;67585;44.802;10.332;2024-01-16T00:38:55;45.63;;;18.77;;
78120;SDS011;67585;44.802;10.332;2024-01-16T00:41:21;44.40;;;19.55;;
78120;SDS011;67585;44.802;10.332;2024-01-16T00:43:46;47.13;;;18.88;;
78120;SDS011;67585;44.802;10.332;2024-01-16T00:46:12;47.45;;;19.70;;
78120;SDS011;67585;44.802;10.332;2024-01-16T00:48:37;49.63;;;21.88;;
78120;SDS011;67585;44.802;10.332;2024-01-16T00:51:03;42.67;;;19.05;;
78120;SDS011;67585;44.802;10.332;2024-01-16T00:53:29;48.47;;;22.55;;
78120;SDS011;67585;44.802;10.332;2024-01-16T00:55:54;46.85;;;20.58;;
78120;SDS011;67585;44.802;10.332;2024-01-16T00:58:23;41.75;;;19.50;;
78120;SDS011;67585;44.802;10.332;2024-01-16T01:00:48;44.13;;;19.45;;
78120;SDS011;67585;44.802;10.332;2024-01-16T01:03:14;45.38;;;19.20;;
78120;SDS011;67585;44.802;10.332;2024-01-16T01:05:40;45.47;;;18.65;;
78120;SDS011;67585;44.802;10.332;2024-01-16T01:08:05;50.40;;;19.75;;
78120;SDS011;67585;44.802;10.332;2024-01-16T01:10:34;47.70;;;20.27;;
78120;SDS011;67585;44.802;10.332;2024-01-16T01:13:02;51.67;;;19.25;;
78120;SDS011;67585;44.802;10.332;2024-01-16T01:15:30;44.88;;;18.20;;
78120;SDS011;67585;44.802;10.332;2024-01-16T01:17:56;48.60;;;21.65;;
78120;SDS011;67585;44.802;10.332;2024-01-16T01:20:21;49.72;;;19.48;;
78120;SDS011;67585;44.802;10.332;2024-01-16T01:22:47;42.75;;;18.63;;
78120;SDS011;67585;44.802;10.332;2024-01-16T01:25:12;39.63;;;19.25;;
78120;SDS011;67585;44.802;10.332;2024-01-16T01:27:38;41.80;;;17.70;;
78120;SDS011;67585;44.802;10.332;2024-01-16T01:30:04;44.40;;;17.63;;
78120;SDS011;67585;44.802;10.332;2024-01-16T01:32:31;45.10;;;19.75;;
78120;SDS011;67585;44.802;10.332;2024-01-16T01:34:57;47.85;;;19.98;;
78120;SDS011;67585;44.802;10.332;2024-01-16T01:37:23;52.45;;;20.88;;
78120;SDS011;67585;44.802;10.332;2024-01-16T01:39:48;47.00;;;19.60;;
78120;SDS011;67585;44.802;10.332;2024-01-16T01:42:15;44.08;;;19.75;;
78120;SDS011;67585;44.802;10.332;2024-01-16T01:44:40;51.70;;;20.88;;
78120;SDS011;67585;44.802;10.332;2024-01-16T01:47:06;49.88;;;17.95;;
78120;SDS011;67585;44.802;10.332;2024-01-16T01:49:33;46.40;;;20.60;;
78120;SDS011;67585;44.802;10.332;2024-01-16T01:51:58;55.92;;;20.73;;
78120;SDS011;67585;44.802;10.332;2024-01-16T01:54:24;48.83;;;19.15;;
78120;SDS011;67585;44.802;10.332;2024-01-16T01:56:51;44.65;;;19.17;;
78120;SDS011;67585;44.802;10.332;2024-01-16T01:59:17;43.72;;;20.58;;
78120;SDS011;67585;44.802;10.332;2024-01-16T02:01:44;43.22;;;19.10;;
78120;SDS011;67585;44.802;10.332;2024-01-16T02:04:11;48.92;;;19.20;;
78120;SDS011;67585;44.802;10.332;2024-01-16T02:06:39;48.10;;;19.33;;
78120;SDS011;67585;44.802;10.332;2024-01-16T02:09:04;50.45;;;19.85;;
78120;SDS011;67585;44.802;10.332;2024-01-16T02:11:32;41.78;;;18.35;;
78120;SDS011;67585;44.802;10.332;2024-01-16T02:13:57;44.95;;;18.10;;
78120;SDS011;67585;44.802;10.332;2024-01-16T02:16:24;46.85;;;17.63;;
78120;SDS011;67585;44.802;10.332;2024-01-16T02:18:49;50.70;;;19.80;;
78120;SDS011;67585;44.802;10.332;2024-01-16T02:21:22;48.33;;;19.77;;
78120;SDS011;67585;44.802;10.332;2024-01-16T02:23:52;44.92;;;17.77;;
78120;SDS011;67585;44.802;10.332;2024-01-16T02:26:18;45.47;;;19.77;;
78120;SDS011;67585;44.802;10.332;2024-01-16T02:28:44;44.10;;;16.83;;
78120;SDS011;67585;44.802;10.332;2024-01-16T02:31:10;42.15;;;18.55;;
78120;SDS011;67585;44.802;10.332;2024-01-16T02:33:35;44.47;;;18.00;;
78120;SDS011;67585;44.802;10.332;2024-01-16T02:36:01;46.85;;;18.48;;
78120;SDS011;67585;44.802;10.332;2024-01-16T02:38:26;53.05;;;21.75;;
78120;SDS011;67585;44.802;10.332;2024-01-16T02:40:52;44.25;;;17.05;;
78120;SDS011;67585;44.802;10.332;2024-01-16T02:43:17;49.45;;;19.35;;
78120;SDS011;67585;44.802;10.332;2024-01-16T02:45:45;39.78;;;17.70;;
78120;SDS011;67585;44.802;10.332;2024-01-16T02:48:10;51.40;;;19.27;;
78120;SDS011;67585;44.802;10.332;2024-01-16T02:50:36;42.20;;;18.90;;
78120;SDS011;67585;44.802;10.332;2024-01-16T02:53:02;43.13;;;17.35;;
78120;SDS011;67585;44.802;10.332;2024-01-16T02:55:27;40.88;;;17.02;;
78120;SDS011;67585;44.802;10.332;2024-01-16T02:57:52;40.70;;;19.63;;
78120;SDS011;67585;44.802;10.332;2024-01-16T03:00:18;42.10;;;19.20;;
78120;SDS011;67585;44.802;10.332;2024-01-16T03:02:44;46.88;;;19.52;;
78120;SDS011;67585;44.802;10.332;2024-01-16T03:05:09;46.05;;;18.25;;
78120;SDS011;67585;44.802;10.332;2024-01-16T03:07:36;46.78;;;18.52;;
78120;SDS011;67585;44.802;10.332;2024-01-16T03:10:01;40.33;;;16.75;;
78120;SDS011;67585;44.802;10.332;2024-01-16T03:12:27;42.30;;;17.02;;
78120;SDS011;67585;44.802;10.332;2024-01-16T03:14:53;44.65;;;18.70;;
78120;SDS011;67585;44.802;10.332;2024-01-16T03:17:19;42.05;;;16.15;;
78120;SDS011;67585;44.802;10.332;2024-01-16T03:19:44;42.45;;;17.25;;
78120;SDS011;67585;44.802;10.332;2024-01-16T03:22:10;48.22;;;19.83;;
78120;SDS011;67585;44.802;10.332;2024-01-16T03:24:35;43.40;;;17.45;;
78120;SDS011;67585;44.802;10.332;2024-01-16T03:27:00;43.92;;;17.70;;
78120;SDS011;67585;44.802;10.332;2024-01-16T03:29:26;47.38;;;18.83;;
78120;SDS011;67585;44.802;10.332;2024-01-16T03:31:51;34.65;;;16.38;;
78120;SDS011;67585;44.802;10.332;2024-01-16T03:34:18;39.72;;;16.70;;
78120;SDS011;67585;44.802;10.332;2024-01-16T03:36:43;40.05;;;16.10;;
78120;SDS011;67585;44.802;10.332;2024-01-16T03:39:09;40.30;;;18.25;;
78120;SDS011;67585;44.802;10.332;2024-01-16T03:41:34;49.65;;;17.42;;
78120;SDS011;67585;44.802;10.332;2024-01-16T03:43:59;46.90;;;20.48;;
78120;SDS011;67585;44.802;10.332;2024-01-16T03:46:25;41.67;;;17.92;;
78120;SDS011;67585;44.802;10.332;2024-01-16T03:48:50;43.50;;;16.15;;
78120;SDS011;67585;44.802;10.332;2024-01-16T03:51:16;39.42;;;18.05;;
78120;SDS011;67585;44.802;10.332;2024-01-16T03:53:43;43.13;;;17.27;;
78120;SDS011;67585;44.802;10.332;2024-01-16T03:56:08;48.55;;;17.80;;
78120;SDS011;67585;44.802;10.332;2024-01-16T03:58:33;43.92;;;17.35;;
78120;SDS011;67585;44.802;10.332;2024-01-16T04:00:59;37.20;;;16.02;;
78120;SDS011;67585;44.802;10.332;2024-01-16T04:03:25;41.72;;;17.05;;
78120;SDS011;67585;44.802;10.332;2024-01-16T04:05:50;40.45;;;16.13;;
78120;SDS011;67585;44.802;10.332;2024-01-16T04:08:15;35.90;;;17.08;;
78120;SDS011;67585;44.802;10.332;2024-01-16T04:10:41;41.13;;;15.48;;
78120;SDS011;67585;44.802;10.332;2024-01-16T04:13:07;43.08;;;14.57;;
78120;SDS011;67585;44.802;10.332;2024-01-16T04:15:32;38.80;;;14.57;;
78120;SDS011;67585;44.802;10.332;2024-01-16T04:17:59;43.50;;;17.50;;
78120;SDS011;67585;44.802;10.332;2024-01-16T04:20:24;40.35;;;16.58;;
78120;SDS011;67585;44.802;10.332;2024-01-16T04:22:50;33.30;;;15.20;;
78120;SDS011;67585;44.802;10.332;2024-01-16T04:25:16;37.63;;;16.90;;
78120;SDS011;67585;44.802;10.332;2024-01-16T04:27:41;49.08;;;17.98;;
78120;SDS011;67585;44.802;10.332;2024-01-16T04:30:07;40.92;;;15.32;;
78120;SDS011;67585;44.802;10.332;2024-01-16T04:32:33;38.20;;;15.45;;
78120;SDS011;67585;44.802;10.332;2024-01-16T04:34:58;33.22;;;14.40;;
78120;SDS011;67585;44.802;10.332;2024-01-16T04:37:23;39.70;;;16.80;;
78120;SDS011;67585;44.802;10.332;2024-01-16T04:39:49;36.33;;;15.18;;
78120;SDS011;67585;44.802;10.332;2024-01-16T04:42:14;35.35;;;15.25;;
78120;SDS011;67585;44.802;10.332;2024-01-16T04:44:42;34.67;;;14.40;;
78120;SDS011;67585;44.802;10.332;2024-01-16T04:47:08;40.90;;;15.85;;
78120;SDS011;67585;44.802;10.332;2024-01-16T04:49:33;34.67;;;14.98;;
78120;SDS011;67585;44.802;10.332;2024-01-16T04:51:59;35.25;;;14.45;;
78120;SDS011;67585;44.802;10.332;2024-01-16T04:54:25;34.13;;;14.73;;
78120;SDS011;67585;44.802;10.332;2024-01-16T04:56:50;36.53;;;14.45;;
78120;SDS011;67585;44.802;10.332;2024-01-16T04:59:15;36.10;;;14.82;;
78120;SDS011;67585;44.802;10.332;2024-01-16T05:01:41;35.25;;;15.10;;
78120;SDS011;67585;44.802;10.332;2024-01-16T05:04:06;34.33;;;15.43;;
78120;SDS011;67585;44.802;10.332;2024-01-16T05:06:33;32.50;;;16.25;;
78120;SDS011;67585;44.802;10.332;2024-01-16T05:08:59;39.78;;;15.25;;
78120;SDS011;67585;44.802;10.332;2024-01-16T05:11:25;30.85;;;13.88;;
78120;SDS011;67585;44.802;10.332;2024-01-16T05:13:50;37.63;;;16.75;;
78120;SDS011;67585;44.802;10.332;2024-01-16T05:16:22;34.53;;;13.48;;
78120;SDS011;67585;44.802;10.332;2024-01-16T05:18:48;32.03;;;13.52;;
78120;SDS011;67585;44.802;10.332;2024-01-16T05:21:13;40.05;;;17.27;;
78120;SDS011;67585;44.802;10.332;2024-01-16T05:23:39;43.13;;;15.55;;
78120;SDS011;67585;44.802;10.332;2024-01-16T05:26:04;41.28;;;15.48;;
78120;SDS011;67585;44.802;10.332;2024-01-16T05:28:30;41.38;;;15.43;;
78120;SDS011;67585;44.802;10.332;2024-01-16T05:30:55;45.50;;;15.18;;
78120;SDS011;67585;44.802;10.332;2024-01-16T05:33:20;37.65;;;13.52;;
78120;SDS011;67585;44.802;10.332;2024-01-16T05:35:46;34.17;;;14.80;;
78120;SDS011;67585;44.802;10.332;2024-01-16T05:38:12;32.33;;;13.50;;
78120;SDS011;67585;44.802;10.332;2024-01-16T05:40:37;39.35;;;13.95;;
78120;SDS011;67585;44.802;10.332;2024-01-16T05:43:03;39.25;;;15.73;;
78120;SDS011;67585;44.802;10.332;2024-01-16T05:45:28;41.80;;;16.60;;
78120;SDS011;67585;44.802;10.332;2024-01-16T05:47:53;36.50;;;16.73;;
78120;SDS011;67585;44.802;10.332;2024-01-16T05:50:19;37.55;;;15.43;;
78120;SDS011;67585;44.802;10.332;2024-01-16T05:52:44;43.47;;;18.63;;
78120;SDS011;67585;44.802;10.332;2024-01-16T05:55:09;35.75;;;17.00;;
78120;SDS011;67585;44.802;10.332;2024-01-16T05:57:35;39.97;;;17.15;;
78120;SDS011;67585;44.802;10.332;2024-01-16T06:00:02;41.03;;;18.00;;
78120;SDS011;67585;44.802;10.332;2024-01-16T06:02:29;41.15;;;14.77;;
78120;SDS011;67585;44.802;10.332;2024-01-16T06:04:54;36.17;;;14.63;;
78120;SDS011;67585;44.802;10.332;2024-01-16T06:07:20;38.15;;;14.15;;
78120;SDS011;67585;44.802;10.332;2024-01-16T06:09:45;31.98;;;14.95;;
78120;SDS011;67585;44.802;10.332;2024-01-16T06:12:11;38.55;;;15.27;;
78120;SDS011;67585;44.802;10.332;2024-01-16T06:14:37;32.50;;;12.23;;
78120;SDS011;67585;44.802;10.332;2024-01-16T06:17:02;36.88;;;15.38;;
78120;SDS011;67585;44.802;10.332;2024-01-16T06:19:30;37.88;;;15.15;;
78120;SDS011;67585;44.802;10.332;2024-01-16T06:21:55;40.08;;;17.33;;
78120;SDS011;67585;44.802;10.332;2024-01-16T06:24:21;42.28;;;16.58;;
78120;SDS011;67585;44.802;10.332;2024-01-16T06:26:47;38.03;;;16.10;;
78120;SDS011;67585;44.802;10.332;2024-01-16T06:29:12;35.83;;;16.52;;
78120;SDS011;67585;44.802;10.332;2024-01-16T06:31:38;37.25;;;14.20;;
78120;SDS011;67585;44.802;10.332;2024-01-16T06:34:03;38.97;;;16.90;;
78120;SDS011;67585;44.802;10.332;2024-01-16T06:36:29;36.42;;;15.13;;
78120;SDS011;67585;44.802;10.332;2024-01-16T06:38:54;25.58;;;10.07;;
78120;SDS011;67585;44.802;10.332;2024-01-16T06:41:20;29.13;;;10.77;;
78120;SDS011;67585;44.802;10.332;2024-01-16T06:43:46;23.83;;;10.35;;
78120;SDS011;67585;44.802;10.332;2024-01-16T06:46:11;33.05;;;14.02;;
78120;SDS011;67585;44.802;10.332;2024-01-16T06:48:37;34.60;;;12.85;;
78120;SDS011;67585;44.802;10.332;2024-01-16T06:51:03;34.80;;;16.00;;
78120;SDS011;67585;44.802;10.332;2024-01-16T06:53:29;36.78;;;16.02;;
78120;SDS011;67585;44.802;10.332;2024-01-16T06:55:55;37.35;;;17.02;;
78120;SDS011;67585;44.802;10.332;2024-01-16T06:58:20;36.58;;;15.93;;
78120;SDS011;67585;44.802;10.332;2024-01-16T07:00:46;47.83;;;16.08;;
78120;SDS011;67585;44.802;10.332;2024-01-16T07:03:12;37.22;;;15.50;;
78120;SDS011;67585;44.802;10.332;2024-01-16T07:05:38;41.67;;;15.32;;
78120;SDS011;67585;44.802;10.332;2024-01-16T07:08:05;45.17;;;18.10;;
78120;SDS011;67585;44.802;10.332;2024-01-16T07:10:31;38.80;;;15.48;;
78120;SDS011;67585;44.802;10.332;2024-01-16T07:12:57;40.35;;;15.45;;
78120;SDS011;67585;44.802;10.332;2024-01-16T07:15:22;44.45;;;15.93;;
78120;SDS011;67585;44.802;10.332;2024-01-16T07:17:48;42.95;;;17.70;;
78120;SDS011;67585;44.802;10.332;2024-01-16T07:20:13;36.08;;;14.25;;
78120;SDS011;67585;44.802;10.332;2024-01-16T07:22:38;34.95;;;14.80;;
78120;SDS011;67585;44.802;10.332;2024-01-16T07:25:07;41.53;;;15.20;;
78120;SDS011;67585;44.802;10.332;2024-01-16T07:27:33;42.13;;;14.55;;
78120;SDS011;67585;44.802;10.332;2024-01-16T07:29:59;33.47;;;14.27;;
78120;SDS011;67585;44.802;10.332;2024-01-16T07:32:24;31.70;;;14.65;;
78120;SDS011;67585;44.802;10.332;2024-01-16T07:34:50;38.15;;;15.27;;
78120;SDS011;67585;44.802;10.332;2024-01-16T07:37:16;35.38;;;15.23;;
78120;SDS011;67585;44.802;10.332;2024-01-16T07:39:42;40.58;;;16.10;;
78120;SDS011;67585;44.802;10.332;2024-01-16T07:42:08;38.45;;;16.23;;
78120;SDS011;67585;44.802;10.332;2024-01-16T07:44:33;43.78;;;15.15;;
78120;SDS011;67585;44.802;10.332;2024-01-16T07:46:59;37.15;;;14.45;;
78120;SDS011;67585;44.802;10.332;2024-01-16T07:49:24;38.53;;;13.88;;
78120;SDS011;67585;44.802;10.332;2024-01-16T07:51:50;37.08;;;14.10;;
78120;SDS011;67585;44.802;10.332;2024-01-16T07:54:15;37.95;;;14.18;;
78120;SDS011;67585;44.802;10.332;2024-01-16T07:56:40;38.28;;;14.40;;
78120;SDS011;67585;44.802;10.332;2024-01-16T07:59:06;40.35;;;14.85;;
78120;SDS011;67585;44.802;10.332;2024-01-16T08:01:32;37.78;;;15.60;;
78120;SDS011;67585;44.802;10.332;2024-01-16T08:03:57;41.20;;;18.20;;
78120;SDS011;67585;44.802;10.332;2024-01-16T08:06:23;35.97;;;15.70;;
78120;SDS011;67585;44.802;10.332;2024-01-16T08:08:49;35.55;;;15.48;;
78120;SDS011;67585;44.802;10.332;2024-01-16T08:11:15;35.70;;;15.55;;
78120;SDS011;67585;44.802;10.332;2024-01-16T08:13:43;42.30;;;18.58;;
78120;SDS011;67585;44.802;10.332;2024-01-16T08:16:09;41.95;;;17.45;;
78120;SDS011;67585;44.802;10.332;2024-01-16T08:18:34;35.72;;;18.02;;
78120;SDS011;67585;44.802;10.332;2024-01-16T08:20:59;39.72;;;16.63;;
78120;SDS011;67585;44.802;10.332;2024-01-16T08:23:25;46.63;;;18.02;;
78120;SDS011;67585;44.802;10.332;2024-01-16T08:25:50;43.78;;;18.35;;
78120;SDS011;67585;44.802;10.332;2024-01-16T08:28:17;43.10;;;18.63;;
78120;SDS011;67585;44.802;10.332;2024-01-16T08:30:42;40.17;;;17.60;;
78120;SDS011;67585;44.802;10.332;2024-01-16T08:33:08;45.28;;;19.67;;
78120;SDS011;67585;44.802;10.332;2024-01-16T08:35:33;44.28;;;20.27;;
78120;SDS011;67585;44.802;10.332;2024-01-16T08:37:59;41.45;;;18.23;;
78120;SDS011;67585;44.802;10.332;2024-01-16T08:40:24;43.08;;;16.60;;
78120;SDS011;67585;44.802;10.332;2024-01-16T08:42:50;44.03;;;20.23;;
78120;SDS011;67585;44.802;10.332;2024-01-16T08:45:19;39.67;;;17.52;;
78120;SDS011;67585;44.802;10.332;2024-01-16T08:47:48;43.72;;;17.02;;
78120;SDS011;67585;44.802;10.332;2024-01-16T08:50:14;46.05;;;19.65;;
78120;SDS011;67585;44.802;10.332;2024-01-16T08:52:40;40.70;;;15.00;;
78120;SDS011;67585;44.802;10.332;2024-01-16T08:55:07;43.92;;;19.00;;
78120;SDS011;67585;44.802;10.332;2024-01-16T08:57:33;47.70;;;19.92;;
78120;SDS011;67585;44.802;10.332;2024-01-16T08:59:59;40.00;;;16.33;;
78120;SDS011;67585;44.802;10.332;2024-01-16T09:02:25;37.08;;;16.00;;
78120;SDS011;67585;44.802;10.332;2024-01-16T09:04:54;37.75;;;15.32;;
78120;SDS011;67585;44.802;10.332;2024-01-16T09:07:19;44.42;;;17.63;;
78120;SDS011;67585;44.802;10.332;2024-01-16T09:09:45;41.30;;;17.08;;
78120;SDS011;67585;44.802;10.332;2024-01-16T09:12:10;36.33;;;15.35;;
78120;SDS011;67585;44.802;10.332;2024-01-16T09:14:36;44.88;;;16.38;;
78120;SDS011;67585;44.802;10.332;2024-01-16T09:17:01;38.22;;;15.07;;
78120;SDS011;67585;44.802;10.332;2024-01-16T09:19:28;41.47;;;16.50;;
78120;SDS011;67585;44.802;10.332;2024-01-16T09:21:54;39.00;;;15.43;;
78120;SDS011;67585;44.802;10.332;2024-01-16T09:24:19;44.03;;;17.42;;
78120;SDS011;67585;44.802;10.332;2024-01-16T09:26:45;38.72;;;16.77;;
78120;SDS011;67585;44.802;10.332;2024-01-16T09:29:10;46.95;;;20.30;;
78120;SDS011;67585;44.802;10.332;2024-01-16T09:31:36;44.95;;;18.48;;
78120;SDS011;67585;44.802;10.332;2024-01-16T09:34:02;38.95;;;17.17;;
78120;SDS011;67585;44.802;10.332;2024-01-16T09:36:28;38.38;;;16.35;;
78120;SDS011;67585;44.802;10.332;2024-01-16T09:38:54;42.22;;;16.58;;
78120;SDS011;67585;44.802;10.332;2024-01-16T09:41:19;45.08;;;17.40;;
78120;SDS011;67585;44.802;10.332;2024-01-16T09:43:45;44.33;;;18.33;;
78120;SDS011;67585;44.802;10.332;2024-01-16T09:46:12;52.67;;;22.23;;
78120;SDS011;67585;44.802;10.332;2024-01-16T09:48:40;47.83;;;18.10;;
78120;SDS011;67585;44.802;10.332;2024-01-16T09:51:06;46.42;;;22.90;;
78120;SDS011;67585;44.802;10.332;2024-01-16T09:53:32;54.92;;;21.13;;
78120;SDS011;67585;44.802;10.332;2024-01-16T09:55:58;53.95;;;21.50;;
78120;SDS011;67585;44.802;10.332;2024-01-16T09:58:27;51.10;;;21.83;;
78120;SDS011;67585;44.802;10.332;2024-01-16T10:00:55;48.83;;;19.42;;
78120;SDS011;67585;44.802;10.332;2024-01-16T10:03:22;50.17;;;19.05;;
78120;SDS011;67585;44.802;10.332;2024-01-16T10:05:48;52.20;;;20.33;;
78120;SDS011;67585;44.802;10.332;2024-01-16T10:08:14;46.75;;;23.13;;
78120;SDS011;67585;44.802;10.332;2024-01-16T10:10:39;49.42;;;21.48;;
78120;SDS011;67585;44.802;10.332;2024-01-16T10:13:05;51.10;;;24.67;;
78120;SDS011;67585;44.802;10.332;2024-01-16T10:15:31;52.55;;;22.98;;
78120;SDS011;67585;44.802;10.332;2024-01-16T10:17:57;57.35;;;23.67;;
78120;SDS011;67585;44.802;10.332;2024-01-16T10:20:34;58.83;;;24.33;;
78120;SDS011;67585;44.802;10.332;2024-01-16T10:23:01;55.40;;;24.85;;
78120;SDS011;67585;44.802;10.332;2024-01-16T10:25:28;63.88;;;26.88;;
78120;SDS011;67585;44.802;10.332;2024-01-16T10:28:04;54.72;;;24.38;;
78120;SDS011;67585;44.802;10.332;2024-01-16T10:30:32;56.50;;;23.88;;
78120;SDS011;67585;44.802;10.332;2024-01-16T10:33:12;58.72;;;23.52;;
78120;SDS011;67585;44.802;10.332;2024-01-16T10:35:42;60.17;;;25.58;;
78120;SDS011;67585;44.802;10.332;2024-01-16T10:38:07;65.25;;;27.45;;
78120;SDS011;67585;44.802;10.332;2024-01-16T10:40:32;65.43;;;26.48;;
78120;SDS011;67585;44.802;10.332;2024-01-16T10:43:02;57.95;;;27.00;;
78120;SDS011;67585;44.802;10.332;2024-01-16T10:45:29;66.47;;;25.50;;
78120;SDS011;67585;44.802;10.332;2024-01-16T10:48:00;64.68;;;26.23;;
78120;SDS011;67585;44.802;10.332;2024-01-16T10:50:30;65.82;;;27.98;;
78120;SDS011;67585;44.802;10.332;2024-01-16T10:52:56;65.20;;;27.63;;
78120;SDS011;67585;44.802;10.332;2024-01-16T10:55:24;59.40;;;26.30;;
78120;SDS011;67585;44.802;10.332;2024-01-16T10:57:54;69.82;;;27.60;;
78120;SDS011;67585;44.802;10.332;2024-01-16T11:00:21;63.13;;;25.55;;
78120;SDS011;67585;44.802;10.332;2024-01-16T11:03:07;58.78;;;23.27;;
78120;SDS011;67585;44.802;10.332;2024-01-16T11:05:36;53.70;;;21.58;;
78120;SDS011;67585;44.802;10.332;2024-01-16T11:08:04;70.70;;;25.88;;
78120;SDS011;67585;44.802;10.332;2024-01-16T11:10:31;62.08;;;26.45;;
78120;SDS011;67585;44.802;10.332;2024-01-16T11:12:59;59.85;;;21.38;;
78120;SDS011;67585;44.802;10.332;2024-01-16T11:15:27;58.92;;;26.77;;
78120;SDS011;67585;44.802;10.332;2024-01-16T11:20:19;52.92;;;21.13;;
78120;SDS011;67585;44.802;10.332;2024-01-16T11:22:45;67.80;;;26.27;;
78120;SDS011;67585;44.802;10.332;2024-01-16T11:25:12;58.30;;;22.80;;
78120;SDS011;67585;44.802;10.332;2024-01-16T11:27:39;61.03;;;24.02;;
78120;SDS011;67585;44.802;10.332;2024-01-16T11:30:06;61.25;;;24.88;;
78120;SDS011;67585;44.802;10.332;2024-01-16T11:32:33;63.88;;;27.25;;
78120;SDS011;67585;44.802;10.332;2024-01-16T11:35:00;53.90;;;24.70;;
78120;SDS011;67585;44.802;10.332;2024-01-16T11:37:27;62.38;;;24.73;;
78120;SDS011;67585;44.802;10.332;2024-01-16T11:40:19;62.22;;;24.15;;
78120;SDS011;67585;44.802;10.332;2024-01-16T11:42:42;59.97;;;24.45;;
78120;SDS011;67585;44.802;10.332;2024-01-16T11:45:47;60.35;;;22.85;;
78120;SDS011;67585;44.802;10.332;2024-01-16T11:48:30;50.70;;;20.88;;
78120;SDS011;67585;44.802;10.332;2024-01-16T11:50:48;50.30;;;19.23;;
78120;SDS011;67585;44.802;10.332;2024-01-16T11:53:32;48.08;;;19.38;;
78120;SDS011;67585;44.802;10.332;2024-01-16T11:58:57;47.28;;;19.58;;
78120;SDS011;67585;44.802;10.332;2024-01-16T12:01:32;52.97;;;20.88;;
78120;SDS011;67585;44.802;10.332;2024-01-16T12:04:04;56.15;;;20.60;;
78120;SDS011;67585;44.802;10.332;2024-01-16T12:06:34;51.00;;;20.85;;
78120;SDS011;67585;44.802;10.332;2024-01-16T12:09:10;59.55;;;20.58;;
78120;SDS011;67585;44.802;10.332;2024-01-16T12:11:40;50.80;;;22.02;;
78120;SDS011;67585;44.802;10.332;2024-01-16T12:14:08;47.53;;;19.13;;
78120;SDS011;67585;44.802;10.332;2024-01-16T12:16:33;49.45;;;19.50;;
78120;SDS011;67585;44.802;10.332;2024-01-16T12:19:08;41.03;;;17.65;;
78120;SDS011;67585;44.802;10.332;2024-01-16T12:21:34;43.88;;;17.00;;
78120;SDS011;67585;44.802;10.332;2024-01-16T12:24:04;41.20;;;18.17;;
78120;SDS011;67585;44.802;10.332;2024-01-16T12:26:30;42.25;;;15.77;;
78120;SDS011;67585;44.802;10.332;2024-01-16T12:28:56;45.33;;;17.75;;
78120;SDS011;67585;44.802;10.332;2024-01-16T12:31:22;44.63;;;19.45;;
78120;SDS011;67585;44.802;10.332;2024-01-16T12:33:49;36.80;;;15.50;;
78120;SDS011;67585;44.802;10.332;2024-01-16T12:36:18;43.65;;;16.65;;
78120;SDS011;67585;44.802;10.332;2024-01-16T12:38:43;41.28;;;17.63;;
78120;SDS011;67585;44.802;10.332;2024-01-16T12:41:09;40.92;;;16.30;;
78120;SDS011;67585;44.802;10.332;2024-01-16T12:43:36;37.92;;;15.68;;
78120;SDS011;67585;44.802;10.332;2024-01-16T12:46:02;36.72;;;12.65;;
78120;SDS011;67585;44.802;10.332;2024-01-16T12:48:28;31.30;;;14.27;;
78120;SDS011;67585;44.802;10.332;2024-01-16T12:51:00;36.55;;;14.82;;
78120;SDS011;67585;44.802;10.332;2024-01-16T12:53:32;42.53;;;17.77;;
78120;SDS011;67585;44.802;10.332;2024-01-16T12:55:59;37.58;;;17.33;;
78120;SDS011;67585;44.802;10.332;2024-01-16T13:00:56;28.92;;;13.85;;
78120;SDS011;67585;44.802;10.332;2024-01-16T13:03:23;33.63;;;15.27;;
78120;SDS011;67585;44.802;10.332;2024-01-16T13:05:57;34.53;;;13.07;;
78120;SDS011;67585;44.802;10.332;2024-01-16T13:08:23;34.33;;;14.40;;
78120;SDS011;67585;44.802;10.332;2024-01-16T13:11:06;31.45;;;12.90;;
78120;SDS011;67585;44.802;10.332;2024-01-16T13:13:32;34.67;;;16.60;;
78120;SDS011;67585;44.802;10.332;2024-01-16T13:15:59;37.00;;;14.43;;
78120;SDS011;67585;44.802;10.332;2024-01-16T13:18:28;36.55;;;16.42;;
78120;SDS011;67585;44.802;10.332;2024-01-16T13:20:55;34.40;;;13.63;;
78120;SDS011;67585;44.802;10.332;2024-01-16T13:23:22;37.08;;;15.45;;
78120;SDS011;67585;44.802;10.332;2024-01-16T13:25:50;40.30;;;15.52;;
78120;SDS011;67585;44.802;10.332;2024-01-16T13:28:16;32.60;;;14.25;;
78120;SDS011;67585;44.802;10.332;2024-01-16T13:30:43;37.10;;;15.50;;
78120;SDS011;67585;44.802;10.332;2024-01-16T13:35:43;41.58;;;14.23;;
78120;SDS011;67585;44.802;10.332;2024-01-16T13:38:09;37.72;;;15.02;;
78120;SDS011;67585;44.802;10.332;2024-01-16T13:40:35;40.72;;;14.95;;
78120;SDS011;67585;44.802;10.332;2024-01-16T13:43:02;33.85;;;16.50;;
78120;SDS011;67585;44.802;10.332;2024-01-16T13:45:28;39.45;;;15.63;;
78120;SDS011;67585;44.802;10.332;2024-01-16T13:47:54;41.28;;;16.10;;
78120;SDS011;67585;44.802;10.332;2024-01-16T13:50:20;30.58;;;15.38;;
78120;SDS011;67585;44.802;10.332;2024-01-16T13:52:46;35.88;;;15.60;;
78120;SDS011;67585;44.802;10.332;2024-01-16T13:55:11;38.08;;;16.92;;
78120;SDS011;67585;44.802;10.332;2024-01-16T13:57:37;40.70;;;15.48;;
78120;SDS011;67585;44.802;10.332;2024-01-16T14:00:03;38.15;;;15.48;;
78120;SDS011;67585;44.802;10.332;2024-01-16T14:02:32;36.67;;;14.65;;
78120;SDS011;67585;44.802;10.332;2024-01-16T14:05:03;36.10;;;13.25;;
78120;SDS011;67585;44.802;10.332;2024-01-16T14:07:30;33.60;;;14.43;;
78120;SDS011;67585;44.802;10.332;2024-01-16T14:09:56;33.75;;;12.25;;
78120;SDS011;67585;44.802;10.332;2024-01-16T14:12:22;32.13;;;12.60;;
78120;SDS011;67585;44.802;10.332;2024-01-16T14:14:49;29.95;;;13.27;;
78120;SDS011;67585;44.802;10.332;2024-01-16T14:17:15;32.60;;;13.30;;